Minden, NV

9:36 PM PDT on April 27, 2015 (GMT -0700)
NVDOT | | Change Station
CLOSE
Current Station
Personal Weather Station
Location: Minden, NV
Elevation: 4685 ft
Nearby Weather Stations

Elev 4685 ft 39.00 °N, 119.78 °W | Updated 3 hours ago

Clear
Clear
66 °F
Feels Like 66 °F
N
Wind Variable Wind from North
Gusts 0.0 mph

Today
High -- | Low -- °F
--% Chance of Precip.
Yesterday
High -- | Low -- °F
Precip. -- in
6:06 AM 7:47 PM
Waxing Gibbous, 70% visible
Pressure 30.19 in
Visibility 10.0 miles
Clouds Clear
Dew Point 23 °F
Humidity 19%
Rainfall in
Snow Depth Not available.
UV 0 out of 12
Pollen 7.80 out of 12
Air Quality Not available.
Flu Activity Sporadic
METAR KCXP 280435Z AUTO 33005KT 10SM CLR 13/M04 A3019 RMK AO2

More Conditions Fewer Conditions

Pressure 30.19 in
Visibility 10.0 miles
Clouds Clear
Dew Point 23 °F
Humidity 19%
Rainfall in
Snow Depth Not available.
UV 0 out of 12
Pollen 7.80 out of 12
Air Quality Not available.
Flu Activity Sporadic
METAR KCXP 280435Z AUTO 33005KT 10SM CLR 13/M04 A3019 RMK AO2

More Conditions Fewer Conditions

10-Day Weather Forecast

Almanac

Astronomy

Apr. 27, 2015 Rise Set
Actual Time
Civil Twilight
Nautical Twilight
Astronomical Twilight
Moon
Length of Visible Light
Length of Day
Tomorrow will be .
, % of the Moon is Illuminated

Today's Extremes

State Highs State Lows

Community

WunderPhotos

Upload Photos

1,817,582 photos uploaded!

WunderBlogs® & News

Nearby

Air Quality

  Air Quality AQ Index Pollutant
Not available.

Snow Depth

Station Depth Elevation

Earthquake Activity

City Distance Mag. Time & Date
Minimum magnitude displayed is 2.5.

Coastal Water Temperatures

Place Temperature

Stations

Nearby Weather Stations

Station Location Temp. Windchill Dew Point Humidity Wind Precip. Elev Updated Type